createdAt,value
2023-05-08T00:00:21.383Z,3.10
2023-05-08T00:03:24.105Z,3.15
2023-05-08T00:06:28.012Z,3.03
2023-05-08T00:09:35.767Z,3.40
2023-05-08T00:12:40.118Z,3.17
2023-05-08T00:15:44.606Z,2.75
2023-05-08T00:18:46.918Z,3.33
2023-05-08T00:21:56.206Z,2.65
2023-05-08T00:24:58.472Z,2.97
2023-05-08T00:28:03.078Z,3.30
2023-05-08T00:31:07.854Z,3.22
2023-05-08T00:34:10.128Z,2.97
2023-05-08T00:37:12.381Z,3.22
2023-05-08T00:40:14.914Z,3.67
2023-05-08T00:43:17.819Z,3.38
2023-05-08T00:46:20.600Z,3.20
2023-05-08T00:49:28.207Z,3.40
2023-05-08T00:52:35.278Z,3.45
2023-05-08T00:55:38.421Z,3.05
2023-05-08T00:58:44.655Z,3.20
2023-05-08T01:01:50.611Z,2.90
2023-05-08T01:04:53.994Z,3.00
2023-05-08T01:11:29.825Z,3.45
2023-05-08T01:14:51.180Z,3.20
2023-05-08T01:18:04.370Z,2.72
2023-05-08T01:21:18.270Z,3.10
2023-05-08T01:24:41.319Z,3.30
2023-05-08T01:28:15.002Z,2.92
2023-05-08T01:31:48.829Z,3.33
2023-05-08T01:38:10.611Z,2.70
2023-05-08T01:41:27.791Z,3.83
2023-05-08T01:44:38.351Z,2.92
2023-05-08T01:47:45.132Z,2.85
2023-05-08T01:50:57.233Z,3.08
2023-05-08T01:54:09.446Z,3.13
2023-05-08T01:57:14.439Z,3.17
2023-05-08T02:00:23.609Z,3.33
2023-05-08T02:06:32.410Z,2.75
2023-05-08T02:09:35.440Z,3.00
2023-05-08T02:12:45.665Z,3.03
2023-05-08T02:15:54.976Z,3.15
2023-05-08T02:19:01.223Z,2.90
2023-05-08T02:22:07.369Z,3.03
2023-05-08T02:25:14.476Z,3.10
2023-05-08T02:28:18.518Z,3.25
2023-05-08T02:31:27.080Z,2.67
2023-05-08T02:34:32.676Z,3.13
2023-05-08T02:37:36.061Z,2.85
2023-05-08T02:40:44.339Z,2.67
2023-05-08T02:43:49.019Z,2.70
2023-05-08T02:47:01.277Z,3.03
2023-05-08T02:50:17.151Z,3.30
2023-05-08T02:53:30.531Z,2.50
2023-05-08T02:56:38.228Z,3.40
2023-05-08T02:59:58.245Z,2.88
2023-05-08T03:03:08.050Z,3.22
2023-05-08T03:06:22.007Z,2.70
2023-05-08T03:09:27.952Z,3.17
2023-05-08T03:12:33.438Z,2.92
2023-05-08T03:15:44.832Z,2.88
2023-05-08T03:19:14.762Z,3.55
2023-05-08T03:22:21.688Z,3.17
2023-05-08T03:25:27.305Z,3.30
2023-05-08T03:31:39.522Z,3.15
2023-05-08T03:34:51.861Z,3.10
2023-05-08T03:41:02.436Z,2.83
2023-05-08T03:44:08.236Z,2.70
2023-05-08T03:47:13.767Z,2.83
2023-05-08T03:53:20.751Z,3.10
2023-05-08T03:56:26.123Z,2.97
2023-05-08T03:59:35.594Z,3.03
2023-05-08T04:02:43.373Z,2.92
2023-05-08T04:05:58.854Z,2.58
2023-05-08T04:09:16.746Z,2.70
2023-05-08T04:12:32.163Z,2.42
2023-05-08T04:16:01.316Z,2.10
2023-05-08T04:19:17.712Z,2.08
2023-05-08T04:22:23.375Z,1.92
2023-05-08T04:25:26.523Z,2.22
2023-05-08T04:31:37.260Z,2.15
2023-05-08T04:34:42.638Z,2.25
2023-05-08T04:37:50.092Z,2.08
2023-05-08T04:40:53.399Z,2.40
2023-05-08T04:43:58.448Z,2.20
2023-05-08T04:47:04.915Z,2.05
2023-05-08T04:50:10.230Z,2.75
2023-05-08T04:53:12.535Z,1.85
2023-05-08T04:56:14.812Z,1.95
2023-05-08T04:59:17.120Z,2.35
2023-05-08T05:02:22.381Z,2.03
2023-05-08T05:05:24.920Z,1.80
2023-05-08T05:08:27.677Z,1.70
2023-05-08T05:11:33.428Z,1.90
2023-05-08T05:14:38.813Z,1.60
2023-05-08T05:17:44.052Z,1.63
2023-05-08T05:20:46.779Z,1.50
2023-05-08T05:23:52.175Z,1.92
2023-05-08T05:26:57.200Z,1.83
2023-05-08T05:30:02.208Z,1.85
2023-05-08T05:33:05.864Z,1.90
2023-05-08T05:36:13.614Z,1.80
2023-05-08T05:39:19.005Z,1.65
2023-05-08T05:42:24.609Z,1.70
2023-05-08T05:48:29.224Z,1.60
2023-05-08T05:51:33.851Z,1.77
2023-05-08T05:54:36.320Z,1.55
2023-05-08T05:57:41.142Z,1.40
2023-05-08T06:00:48.433Z,1.52
2023-05-08T06:03:50.799Z,1.63
2023-05-08T06:06:55.247Z,1.40
2023-05-08T06:10:02.225Z,1.38
2023-05-08T06:13:04.602Z,1.33
2023-05-08T06:16:08.252Z,1.63
2023-05-08T06:19:10.989Z,1.17
2023-05-08T06:22:15.639Z,1.55
2023-05-08T06:25:17.969Z,1.83
2023-05-08T06:28:20.465Z,1.40
2023-05-08T06:31:22.813Z,1.45
2023-05-08T06:34:29.692Z,1.75
2023-05-08T06:37:31.982Z,1.67
2023-05-08T06:40:34.245Z,1.65
2023-05-08T06:43:36.542Z,1.65
2023-05-08T06:46:41.112Z,1.67
2023-05-08T06:49:43.450Z,1.48
2023-05-08T06:52:48.213Z,1.55
2023-05-08T06:55:52.908Z,1.70
2023-05-08T06:59:07.825Z,1.73
2023-05-08T07:02:13.271Z,1.10
2023-05-08T07:05:20.460Z,1.30
2023-05-08T07:08:26.004Z,1.42
2023-05-08T07:11:28.323Z,1.33
2023-05-08T07:14:31.095Z,1.13
2023-05-08T07:17:36.974Z,1.35
2023-05-08T07:20:41.600Z,1.30
2023-05-08T07:23:43.940Z,1.40
2023-05-08T07:26:46.284Z,1.58
2023-05-08T07:29:57.477Z,1.55
2023-05-08T07:33:02.253Z,1.70
2023-05-08T07:36:07.162Z,1.42
2023-05-08T07:39:11.747Z,1.20
2023-05-08T07:42:14.274Z,1.50
2023-05-08T07:45:16.790Z,1.35
2023-05-08T07:48:24.100Z,1.52
2023-05-08T07:51:27.016Z,1.13
2023-05-08T07:54:29.305Z,1.45
2023-05-08T07:57:41.161Z,1.33
2023-05-08T08:00:45.829Z,1.55
2023-05-08T08:03:48.589Z,1.70
2023-05-08T08:06:53.468Z,1.95
2023-05-08T08:09:56.029Z,1.52
2023-05-08T08:12:58.337Z,1.42
2023-05-08T08:16:03.848Z,2.13
2023-05-08T08:19:08.950Z,1.73
2023-05-08T08:22:14.033Z,1.70
2023-05-08T08:25:19.094Z,1.65
2023-05-08T08:31:28.507Z,2.17
2023-05-08T08:34:32.858Z,1.38
2023-05-08T08:37:37.615Z,1.73
2023-05-08T08:40:46.188Z,1.45
2023-05-08T08:43:48.581Z,1.50
2023-05-08T08:46:52.852Z,1.67
2023-05-08T08:49:55.604Z,1.75
2023-05-08T08:53:27.360Z,1.60
2023-05-08T08:56:30.885Z,1.30
2023-05-08T08:59:33.549Z,1.10
2023-05-08T09:02:36.617Z,1.30
2023-05-08T09:05:39.929Z,0.80
2023-05-08T09:08:42.803Z,1.08
2023-05-08T09:11:46.370Z,0.82
2023-05-08T09:14:48.688Z,1.50
2023-05-08T09:17:51.119Z,0.88
2023-05-08T09:20:53.827Z,1.15
2023-05-08T09:24:04.818Z,1.10
2023-05-08T09:27:22.375Z,0.95
2023-05-08T09:30:25.068Z,0.73
2023-05-08T09:33:29.293Z,0.70
2023-05-08T09:36:34.628Z,1.00
2023-05-08T09:39:43.780Z,1.40
2023-05-08T09:42:50.281Z,0.95
2023-05-08T09:45:55.112Z,1.00
2023-05-08T09:48:59.906Z,0.82
2023-05-08T09:52:02.382Z,0.80
2023-05-08T09:55:08.005Z,0.80
2023-05-08T09:58:15.512Z,0.75
2023-05-08T10:01:36.922Z,1.00
2023-05-08T10:04:39.301Z,0.80
2023-05-08T10:07:46.668Z,1.00
2023-05-08T10:10:49.814Z,1.00
2023-05-08T10:13:58.065Z,0.88
2023-05-08T10:20:08.373Z,0.88
2023-05-08T10:23:19.203Z,0.82
2023-05-08T10:26:36.669Z,0.80
2023-05-08T10:29:54.093Z,0.82
2023-05-08T10:33:03.147Z,0.70
2023-05-08T10:36:06.836Z,0.88
2023-05-08T10:39:09.927Z,0.82
2023-05-08T10:42:21.203Z,0.73
2023-05-08T10:45:24.374Z,0.82
2023-05-08T10:48:44.952Z,0.93
2023-05-08T10:52:09.897Z,1.00
2023-05-08T10:55:22.070Z,0.70
2023-05-08T10:58:24.292Z,1.05
2023-05-08T11:01:27.117Z,0.75
2023-05-08T11:04:29.654Z,0.52
2023-05-08T11:07:58.618Z,1.02
2023-05-08T11:11:00.845Z,0.73
2023-05-08T11:14:11.693Z,1.15
2023-05-08T11:17:22.691Z,0.90
2023-05-08T11:20:39.488Z,0.85
2023-05-08T11:23:41.819Z,0.85
2023-05-08T11:26:51.923Z,0.65
2023-05-08T11:30:22.962Z,0.80
2023-05-08T11:33:30.823Z,1.05
2023-05-08T11:36:39.496Z,0.73
2023-05-08T11:39:45.149Z,0.73
2023-05-08T11:42:47.748Z,0.70
2023-05-08T11:45:52.264Z,1.02
2023-05-08T11:49:01.996Z,0.70
2023-05-08T11:52:06.455Z,1.02
2023-05-08T11:55:15.791Z,0.40
2023-05-08T11:58:21.634Z,0.65
2023-05-08T12:01:33.129Z,0.57
2023-05-08T12:04:45.577Z,0.90
2023-05-08T12:07:48.381Z,0.80
2023-05-08T12:10:52.497Z,0.70
2023-05-08T12:13:57.072Z,0.80
2023-05-08T12:17:02.797Z,0.70
2023-05-08T12:20:21.019Z,0.80
2023-05-08T12:23:26.954Z,0.60
2023-05-08T12:26:30.606Z,0.90
2023-05-08T12:29:36.132Z,1.42
2023-05-08T12:32:40.615Z,1.10
2023-05-08T12:35:46.088Z,0.70
2023-05-08T12:38:51.740Z,0.80
2023-05-08T12:41:56.719Z,0.88
2023-05-08T12:45:04.596Z,0.80
2023-05-08T12:48:18.203Z,0.65
2023-05-08T12:51:20.646Z,0.60
2023-05-08T12:57:58.791Z,0.73
2023-05-08T13:01:06.602Z,0.95
2023-05-08T13:04:11.207Z,0.68
2023-05-08T13:07:16.458Z,0.80
2023-05-08T13:10:21.391Z,1.00
2023-05-08T13:13:30.167Z,0.95
2023-05-08T13:16:45.189Z,0.90
2023-05-08T13:19:47.498Z,0.70
2023-05-08T13:22:52.070Z,1.23
2023-05-08T13:25:57.149Z,1.00
2023-05-08T13:29:01.915Z,0.80
2023-05-08T13:32:08.645Z,0.85
2023-05-08T13:35:11.006Z,1.10
2023-05-08T13:38:15.558Z,1.13
2023-05-08T13:41:17.904Z,1.20
2023-05-08T13:44:20.261Z,0.95
2023-05-08T13:47:22.708Z,0.90
2023-05-08T13:50:24.981Z,0.85
2023-05-08T13:53:29.480Z,1.35
2023-05-08T13:56:34.046Z,1.08
2023-05-08T13:59:36.425Z,0.82
2023-05-08T14:02:38.890Z,0.95
2023-05-08T14:05:43.716Z,1.25
2023-05-08T14:08:50.182Z,0.73
2023-05-08T14:11:53.356Z,1.00
2023-05-08T14:14:58.381Z,1.00
2023-05-08T14:18:00.695Z,0.90
2023-05-08T14:21:03.158Z,0.80
2023-05-08T14:24:08.996Z,1.17
2023-05-08T14:27:11.678Z,1.05
2023-05-08T14:30:16.351Z,0.85
2023-05-08T14:33:21.729Z,0.90
2023-05-08T14:36:24.088Z,0.70
2023-05-08T14:39:28.685Z,0.93
2023-05-08T14:42:31.045Z,0.80
2023-05-08T14:45:35.966Z,1.00
2023-05-08T14:48:38.295Z,0.60
2023-05-08T14:51:45.213Z,0.80
2023-05-08T14:54:53.609Z,0.98
2023-05-08T14:58:03.164Z,0.90
2023-05-08T15:01:07.993Z,0.82
2023-05-08T15:04:13.571Z,1.05
2023-05-08T15:07:18.125Z,0.98
2023-05-08T15:10:20.521Z,1.10
2023-05-08T15:13:25.476Z,1.20
2023-05-08T15:16:33.284Z,1.10
2023-05-08T15:19:35.758Z,1.20
2023-05-08T15:22:40.767Z,0.98
2023-05-08T15:25:49.645Z,1.20
2023-05-08T15:28:51.908Z,1.30
2023-05-08T15:32:01.733Z,0.93
2023-05-08T15:35:04.616Z,1.30
2023-05-08T15:41:16.133Z,1.40
2023-05-08T15:44:23.611Z,1.30
2023-05-08T15:47:27.365Z,1.42
2023-05-08T15:50:29.716Z,1.10
2023-05-08T15:53:35.570Z,1.33
2023-05-08T15:56:37.820Z,1.20
2023-05-08T15:59:40.348Z,1.55
2023-05-08T16:02:45.067Z,1.73
2023-05-08T16:05:47.950Z,1.42
2023-05-08T16:08:51.478Z,1.30
2023-05-08T16:11:56.181Z,1.42
2023-05-08T16:15:00.655Z,1.08
2023-05-08T16:18:06.129Z,1.35
2023-05-08T16:21:13.812Z,1.30
2023-05-08T16:24:16.320Z,1.65
2023-05-08T16:27:21.097Z,1.73
2023-05-08T16:30:25.902Z,1.67
2023-05-08T16:33:28.216Z,1.40
2023-05-08T16:36:31.133Z,1.90
2023-05-08T16:39:34.439Z,1.52
2023-05-08T16:42:37.468Z,1.48
2023-05-08T16:45:39.975Z,1.35
2023-05-08T16:48:45.259Z,1.52
2023-05-08T16:51:50.051Z,1.83
2023-05-08T16:54:55.063Z,2.00
2023-05-08T16:57:59.673Z,1.48
2023-05-08T17:01:04.508Z,1.55
2023-05-08T17:04:06.892Z,1.90
2023-05-08T17:07:09.195Z,1.50
2023-05-08T17:10:12.802Z,1.75
2023-05-08T17:13:15.082Z,1.40
2023-05-08T17:16:20.340Z,1.42
2023-05-08T17:19:24.171Z,1.48
2023-05-08T17:22:26.500Z,1.92
2023-05-08T17:25:31.102Z,1.92
2023-05-08T17:28:35.995Z,1.70
2023-05-08T17:31:45.112Z,1.70
2023-05-08T17:34:47.390Z,1.88
2023-05-08T17:37:50.082Z,1.67
2023-05-08T17:40:52.369Z,1.80
2023-05-08T17:43:56.996Z,1.60
2023-05-08T17:47:01.729Z,1.63
2023-05-08T17:50:06.716Z,1.70
2023-05-08T17:53:11.191Z,2.17
2023-05-08T17:56:13.465Z,1.80
2023-05-08T17:59:18.232Z,2.00
2023-05-08T18:02:26.166Z,2.03
2023-05-08T18:05:30.922Z,2.25
2023-05-08T18:08:38.738Z,1.90
2023-05-08T18:11:42.829Z,2.10
2023-05-08T18:14:50.487Z,1.65
2023-05-08T18:17:53.653Z,1.75
2023-05-08T18:21:00.983Z,2.05
2023-05-08T18:24:04.563Z,1.77
2023-05-08T18:27:06.932Z,1.88
2023-05-08T18:30:09.743Z,2.25
2023-05-08T18:33:14.636Z,2.42
2023-05-08T18:36:16.867Z,1.90
2023-05-08T18:39:19.550Z,2.22
2023-05-08T18:42:21.846Z,2.22
2023-05-08T18:45:26.767Z,2.15
2023-05-08T18:48:31.420Z,2.33
2023-05-08T18:51:36.137Z,2.25
2023-05-08T18:54:40.700Z,2.28
2023-05-08T18:57:43.013Z,2.17
2023-05-08T19:00:47.794Z,2.55
2023-05-08T19:03:53.365Z,2.25
2023-05-08T19:06:56.951Z,2.50
2023-05-08T19:10:01.617Z,2.50
2023-05-08T19:13:04.100Z,2.38
2023-05-08T19:16:06.385Z,2.30
2023-05-08T19:19:13.594Z,2.10
2023-05-08T19:22:18.722Z,2.38
2023-05-08T19:25:21.133Z,2.10
2023-05-08T19:28:23.482Z,2.28
2023-05-08T19:31:28.682Z,2.65
2023-05-08T19:34:32.316Z,2.25
2023-05-08T19:37:35.695Z,2.28
2023-05-08T19:40:51.950Z,2.45
2023-05-08T19:43:57.684Z,2.47
2023-05-08T19:47:04.146Z,2.28
2023-05-08T19:50:12.159Z,2.10
2023-05-08T19:53:14.775Z,2.15
2023-05-08T19:56:17.345Z,2.53
2023-05-08T19:59:27.632Z,2.13
2023-05-08T20:02:32.235Z,2.33
2023-05-08T20:05:36.870Z,2.47
2023-05-08T20:08:39.343Z,2.20
2023-05-08T20:11:41.663Z,2.13
2023-05-08T20:14:44.033Z,2.30
2023-05-08T20:17:46.489Z,2.10
2023-05-08T20:20:48.812Z,2.33
2023-05-08T20:23:53.381Z,2.00
2023-05-08T20:27:01.050Z,2.10
2023-05-08T20:30:06.693Z,2.10
2023-05-08T20:33:11.972Z,2.22
2023-05-08T20:36:14.759Z,2.33
2023-05-08T20:39:19.390Z,2.40
2023-05-08T20:42:24.382Z,2.20
2023-05-08T20:45:26.663Z,2.15
2023-05-08T20:48:29.091Z,2.47
2023-05-08T20:51:33.750Z,2.35
2023-05-08T20:54:38.492Z,2.33
2023-05-08T20:57:40.986Z,2.05
2023-05-08T21:00:43.213Z,2.00
2023-05-08T21:03:48.132Z,2.35
2023-05-08T21:09:55.478Z,2.10
2023-05-08T21:12:57.983Z,2.90
2023-05-08T21:16:00.288Z,2.13
2023-05-08T21:19:04.756Z,2.25
2023-05-08T21:22:09.330Z,2.00
2023-05-08T21:25:14.955Z,2.42
2023-05-08T21:28:19.858Z,1.92
2023-05-08T21:31:28.805Z,2.17
2023-05-08T21:34:31.255Z,2.30
2023-05-08T21:37:33.519Z,2.38
2023-05-08T21:40:38.322Z,2.50
2023-05-08T21:43:45.573Z,2.20
2023-05-08T21:46:50.201Z,2.40
2023-05-08T21:50:01.300Z,2.22
2023-05-08T21:53:05.690Z,2.13
2023-05-08T21:56:07.970Z,2.17
2023-05-08T21:59:12.724Z,2.50
2023-05-08T22:02:20.060Z,2.25
2023-05-08T22:05:27.646Z,2.50
2023-05-08T22:08:32.433Z,1.98
2023-05-08T22:11:34.715Z,2.00
2023-05-08T22:14:37.039Z,2.35
2023-05-08T22:17:40.663Z,2.30
2023-05-08T22:20:42.981Z,2.05
2023-05-08T22:23:47.520Z,2.75
2023-05-08T22:26:50.192Z,2.10
2023-05-08T22:29:57.207Z,2.00
2023-05-08T22:33:01.928Z,2.45
2023-05-08T22:36:04.457Z,2.22
2023-05-08T22:39:07.515Z,2.55
2023-05-08T22:42:10.219Z,1.70
2023-05-08T22:45:15.130Z,2.20
2023-05-08T22:48:20.427Z,2.55
2023-05-08T22:51:22.862Z,2.60
2023-05-08T22:54:29.997Z,2.45
2023-05-08T22:57:32.392Z,2.55
2023-05-08T23:00:37.192Z,2.58
2023-05-08T23:03:39.481Z,2.30
2023-05-08T23:06:41.767Z,2.38
2023-05-08T23:09:44.040Z,2.65
2023-05-08T23:12:51.634Z,2.50
2023-05-08T23:15:56.771Z,2.35
2023-05-08T23:18:59.009Z,1.92
2023-05-08T23:22:02.188Z,2.33
2023-05-08T23:25:04.884Z,2.35
2023-05-08T23:28:09.708Z,2.42
2023-05-08T23:31:12.078Z,2.53
2023-05-08T23:34:16.511Z,2.20
2023-05-08T23:37:21.812Z,2.25
2023-05-08T23:40:26.857Z,2.53
2023-05-08T23:43:29.068Z,2.22
2023-05-08T23:46:31.618Z,2.63
2023-05-08T23:49:34.761Z,2.25
2023-05-08T23:52:41.944Z,2.50
2023-05-08T23:55:49.679Z,2.58
2023-05-08T23:58:54.524Z,2.05
